Samarkand, Uzbekistan

8:17 AM +05 on February 21, 2017 (GMT +0500)
Samarkand | | Change Station

Elev 2375 ft 39.70 °N, 67.00 °E | Updated 1 hour ago

Clear
Clear
25 °F
Feels Like 20 °F
N
4
Wind Variable Wind from ESE

Today
High -- | Low -- °F
--% Chance of Precip.
Yesterday
High -- | Low -- °F
Precip. -- in
Pressure 30.24 in
Visibility 3.1 miles
Clouds
Windchill 20 °F
Dew Point 21 °F
Humidity 86%
Rainfall 0.00 in
Snow Depth Not available.
7:16 AM 6:15 PM
Waning Crescent, 29% visible
METAR UTSS 210200Z 11003KT 080V150 5000 BR NSC M04/M06 Q1024 R09/CLRD70 NOSIG
Pressure 30.24 in
Visibility 3.1 miles
Clouds
Windchill 20 °F
Dew Point 21 °F
Humidity 86%
Rainfall 0.00 in
Snow Depth Not available.
7:16 AM 6:15 PM
Waning Crescent, 29% visible
METAR UTSS 210200Z 11003KT 080V150 5000 BR NSC M04/M06 Q1024 R09/CLRD70 NOSIG

Get Your Daily Forecast Email!

Thanks for signing up!

Be on the lookout for a verification email in your inbox.

You'll start receiving the daily forecast at 8 AM.

×

10-Day Weather Forecast

×

Almanac

Astronomy

Feb. 21, 2017 Rise Set
Actual Time
Civil Twilight
Nautical Twilight
Astronomical Twilight
Moon
Length of Visible Light
Length of Day
Tomorrow will be .
, % of the Moon is Illuminated

Today's Extremes

Country Highs Country Lows

Community

WunderPhotos

Upload Photos

1,962,540 photos uploaded!

WunderBlog® & News

Nearby

Air Quality

  Air Quality AQ Index Pollutant
Not available.

Snow Depth

Station Depth Elevation

Earthquake Activity

City Distance Mag. Time & Date
Minimum magnitude displayed is 2.5.

Coastal Water Temperatures

Place Temperature

Stations

Nearby Weather Stations

Station Location Temp. Windchill Dew Point Humidity Wind Precip. Elev Updated Type